Time;durP1;ratioP1;P1;durP2;ratioP2;P2;SDS_P1;SDS_P2;PMS_P1;PMS_P2;Temp;Humidity;BMP_temperature;BMP_pressure;BME280_temperature;BME280_humidity;BME280_pressure;Samples;Min_cycle;Max_cycle;Signal;HPM_P1;HPM_P2
2022/08/06 00:01:54;;;;;;;4.22;3.03;;;31.00;1.00;;;;;;5104575;28;20060;-45
2022/08/06 00:04:21;;;;;;;4.35;2.90;;;30.90;1.00;;;;;;5103481;28;20483;-44
2022/08/06 00:06:46;;;;;;;4.00;2.72;;;31.00;1.00;;;;;;5095428;28;20030;-45
2022/08/06 00:09:12;;;;;;;4.05;2.45;;;31.00;1.00;;;;;;5113355;28;20031;-44
2022/08/06 00:11:41;;;;;;;2.75;2.35;;;31.00;1.00;;;;;;5114064;28;20445;-45
2022/08/06 00:14:07;;;;;;;4.32;2.63;;;31.10;1.00;;;;;;5105233;28;20081;-45
2022/08/06 00:16:33;;;;;;;3.20;2.17;;;31.00;1.00;;;;;;5114029;28;20103;-44
2022/08/06 00:18:58;;;;;;;2.50;2.30;;;31.10;1.00;;;;;;5113216;28;20455;-44
2022/08/06 00:21:24;;;;;;;2.22;2.00;;;31.00;1.00;;;;;;5113898;28;20334;-45
2022/08/06 00:23:50;;;;;;;3.33;2.40;;;31.10;1.00;;;;;;5094896;28;20058;-45
2022/08/06 00:26:15;;;;;;;3.22;2.60;;;31.00;1.00;;;;;;5113781;28;20024;-45
2022/08/06 00:28:41;;;;;;;2.90;2.47;;;31.00;1.00;;;;;;5113000;28;20019;-44
2022/08/06 00:31:10;;;;;;;3.13;2.13;;;31.00;1.00;;;;;;5113863;28;20028;-45
2022/08/06 00:33:35;;;;;;;2.65;2.45;;;31.00;1.00;;;;;;5098543;28;20039;-45
2022/08/06 00:36:02;;;;;;;2.75;2.55;;;30.90;1.00;;;;;;5112634;28;20069;-45
2022/08/06 00:38:27;;;;;;;6.35;2.83;;;30.90;1.00;;;;;;5112649;28;20039;-45
2022/08/06 00:40:54;;;;;;;3.13;2.83;;;30.90;1.00;;;;;;5113008;28;20020;-45
2022/08/06 00:43:20;;;;;;;2.80;2.60;;;30.90;1.00;;;;;;5113383;28;20052;-45
2022/08/06 00:45:45;;;;;;;2.92;2.72;;;30.90;1.00;;;;;;5112924;28;20354;-45
2022/08/06 00:48:13;;;;;;;3.97;2.72;;;30.90;1.00;;;;;;5113519;28;20027;-48
2022/08/06 00:50:39;;;;;;;3.35;2.45;;;30.80;1.00;;;;;;5099036;28;20024;-46
2022/08/06 00:53:05;;;;;;;2.90;2.63;;;30.80;1.00;;;;;;5113850;28;20389;-47
2022/08/06 00:55:30;;;;;;;3.95;2.55;;;30.90;1.00;;;;;;5112246;28;20031;-45
2022/08/06 00:57:56;;;;;;;3.38;3.08;;;30.90;1.00;;;;;;5113536;28;20120;-45
2022/08/06 01:00:22;;;;;;;3.92;2.80;;;30.90;1.00;;;;;;5112567;28;20125;-45
2022/08/06 01:02:47;;;;;;;3.53;2.95;;;30.80;1.00;;;;;;5113205;28;20019;-45
2022/08/06 01:05:13;;;;;;;4.95;2.92;;;30.70;1.00;;;;;;5111409;28;20032;-45
2022/08/06 01:07:39;;;;;;;3.85;2.95;;;30.60;1.00;;;;;;5085714;28;20081;-44
2022/08/06 01:10:05;;;;;;;5.60;3.72;;;30.70;1.00;;;;;;5104177;28;20077;-44
2022/08/06 01:12:31;;;;;;;4.32;3.85;;;30.70;1.00;;;;;;5111778;28;20735;-45
2022/08/06 01:14:56;;;;;;;3.85;3.60;;;30.70;1.00;;;;;;5112113;28;20063;-45
2022/08/06 01:17:34;;;;;;;6.10;4.00;;;30.60;1.00;;;;;;5112722;28;20046;-47
2022/08/06 01:20:15;;;;;;;4.93;4.45;;;30.60;1.00;;;;;;5110875;28;20023;-48
2022/08/06 01:23:00;;;;;;;5.53;4.47;;;30.60;1.00;;;;;;5112861;28;20509;-46
2022/08/06 01:26:21;;;;;;;8.73;4.72;;;30.60;1.00;;;;;;5111584;28;20055;-45
2022/08/06 01:28:54;;;;;;;8.48;4.97;;;30.40;1.00;;;;;;5107631;28;20404;-45
2022/08/06 01:31:28;;;;;;;6.10;5.07;;;30.50;1.00;;;;;;5107954;28;20024;-45
2022/08/06 01:34:03;;;;;;;5.50;5.00;;;30.30;1.00;;;;;;5109522;28;20019;-46
2022/08/06 01:36:43;;;;;;;7.78;6.28;;;30.30;1.00;;;;;;5098895;28;20023;-45
2022/08/06 01:39:13;;;;;;;7.30;5.10;;;30.10;1.00;;;;;;5111434;28;20046;-49
2022/08/06 01:41:45;;;;;;;7.00;5.65;;;30.20;1.00;;;;;;5102080;28;20016;-50
2022/08/06 01:44:20;;;;;;;6.47;5.88;;;30.20;1.00;;;;;;5111675;28;20374;-46
2022/08/06 01:46:50;;;;;;;6.82;6.15;;;30.20;1.00;;;;;;5111553;28;20379;-46
2022/08/06 01:49:22;;;;;;;6.70;5.93;;;30.30;1.00;;;;;;5111582;28;20046;-47
2022/08/06 01:51:51;;;;;;;11.70;7.75;;;30.10;1.00;;;;;;5111611;28;20035;-44
2022/08/06 01:54:18;;;;;;;7.30;6.65;;;30.10;1.00;;;;;;5111318;28;20034;-44
2022/08/06 01:56:47;;;;;;;8.98;7.30;;;30.10;1.00;;;;;;5112176;28;20032;-44
2022/08/06 01:59:16;;;;;;;7.80;7.05;;;30.10;1.00;;;;;;5111388;28;20062;-45
2022/08/06 02:01:43;;;;;;;8.27;7.50;;;30.00;1.00;;;;;;5111082;28;20023;-45
2022/08/06 02:04:10;;;;;;;10.60;7.50;;;30.00;1.00;;;;;;5111358;28;20122;-44
2022/08/06 02:06:40;;;;;;;8.75;7.55;;;29.90;1.00;;;;;;5112234;28;20303;-44
2022/08/06 02:09:09;;;;;;;8.18;7.45;;;29.90;1.00;;;;;;5096600;28;20059;-46
2022/08/06 02:11:36;;;;;;;8.13;7.30;;;30.00;1.00;;;;;;5091746;28;20020;-44
2022/08/06 02:14:03;;;;;;;8.52;7.82;;;29.90;1.00;;;;;;5110823;28;20038;-44
2022/08/06 02:16:33;;;;;;;8.07;6.63;;;29.90;1.00;;;;;;5111741;28;20061;-44
2022/08/06 02:19:01;;;;;;;7.97;7.30;;;29.90;1.00;;;;;;5111956;28;20475;-44
2022/08/06 02:21:28;;;;;;;8.63;7.32;;;29.80;1.00;;;;;;5111451;28;20488;-44
2022/08/06 02:23:55;;;;;;;8.18;6.90;;;29.80;1.00;;;;;;5099794;28;20395;-44
2022/08/06 02:26:24;;;;;;;8.68;7.68;;;29.90;1.00;;;;;;5118048;28;20019;-44
2022/08/06 02:28:53;;;;;;;8.50;7.60;;;29.80;1.00;;;;;;5118636;28;20060;-44
2022/08/06 02:31:19;;;;;;;8.38;7.10;;;29.90;1.00;;;;;;5116950;28;20023;-44
2022/08/06 02:33:44;;;;;;;9.23;8.32;;;29.80;1.00;;;;;;5118628;28;20031;-45
2022/08/06 02:36:28;;;;;;;9.43;8.63;;;29.70;1.00;;;;;;5118297;28;20095;-45
2022/08/06 02:39:08;;;;;;;8.75;7.93;;;29.60;1.00;;;;;;5118457;28;20032;-45
2022/08/06 02:41:56;;;;;;;9.38;8.57;;;29.60;1.00;;;;;;5118572;28;20020;-44
2022/08/06 02:44:33;;;;;;;8.07;7.32;;;29.40;1.00;;;;;;5117192;28;20028;-45
2022/08/06 02:47:06;;;;;;;9.05;8.18;;;29.50;1.00;;;;;;5118535;28;20473;-45
2022/08/06 02:49:35;;;;;;;11.70;8.13;;;29.50;1.00;;;;;;5101003;28;21721;-46
2022/08/06 02:52:13;;;;;;;7.80;7.00;;;29.50;1.00;;;;;;5111179;28;20393;-45
2022/08/06 02:54:44;;;;;;;7.97;7.07;;;29.50;1.00;;;;;;5104036;28;20099;-46
2022/08/06 02:57:21;;;;;;;7.30;6.60;;;29.50;1.00;;;;;;5118904;28;20027;-45
2022/08/06 02:59:51;;;;;;;7.93;6.75;;;29.50;1.00;;;;;;5104472;28;20039;-44
2022/08/06 03:02:22;;;;;;;8.65;7.28;;;29.50;1.00;;;;;;5118560;28;20381;-45
2022/08/06 03:04:49;;;;;;;8.45;7.10;;;29.30;1.00;;;;;;5117708;28;20034;-45
2022/08/06 03:07:16;;;;;;;7.78;6.47;;;29.40;1.00;;;;;;5118453;28;20149;-45
2022/08/06 03:09:47;;;;;;;9.02;7.03;;;29.40;1.00;;;;;;5117200;28;20390;-44
2022/08/06 03:12:15;;;;;;;6.85;6.25;;;29.30;1.00;;;;;;5098035;28;20023;-45
2022/08/06 03:14:42;;;;;;;10.80;6.43;;;29.40;1.00;;;;;;5110751;28;20102;-45
2022/08/06 03:17:12;;;;;;;6.88;6.28;;;29.40;1.00;;;;;;5116525;28;20028;-45
2022/08/06 03:19:39;;;;;;;7.05;6.45;;;29.40;1.00;;;;;;5117363;28;20070;-45
2022/08/06 03:22:07;;;;;;;7.82;6.80;;;29.50;1.00;;;;;;5118368;28;20027;-45
2022/08/06 03:24:35;;;;;;;6.97;6.45;;;29.50;1.00;;;;;;5117567;28;20489;-45
2022/08/06 03:27:01;;;;;;;7.38;6.68;;;29.50;1.00;;;;;;5118107;28;20023;-45
2022/08/06 03:29:28;;;;;;;6.28;5.65;;;29.50;1.00;;;;;;5115739;28;20153;-46
2022/08/06 03:31:55;;;;;;;6.18;5.68;;;29.50;1.00;;;;;;5117953;28;20384;-45
2022/08/06 03:34:21;;;;;;;7.30;6.53;;;29.50;1.00;;;;;;5114880;28;20035;-46
2022/08/06 03:36:48;;;;;;;6.50;5.90;;;29.50;1.00;;;;;;5113895;28;20047;-45
2022/08/06 03:39:15;;;;;;;6.50;5.90;;;29.40;1.00;;;;;;5114733;28;20421;-45
2022/08/06 03:41:42;;;;;;;7.15;5.80;;;29.40;1.00;;;;;;5113921;28;20028;-46
2022/08/06 03:44:08;;;;;;;6.97;5.90;;;29.50;1.00;;;;;;5114687;28;20056;-45
2022/08/06 03:47:09;;;;;;;6.38;5.78;;;29.40;1.00;;;;;;5096015;28;20138;-45
2022/08/06 03:49:52;;;;;;;7.13;6.32;;;29.30;1.00;;;;;;5089723;28;20089;-47
2022/08/06 03:52:23;;;;;;;5.73;5.20;;;29.40;1.00;;;;;;5108101;28;20461;-45
2022/08/06 03:54:53;;;;;;;6.45;5.85;;;29.40;1.00;;;;;;5113567;28;20282;-45
2022/08/06 03:57:23;;;;;;;5.97;5.47;;;29.40;1.00;;;;;;5113590;28;20035;-45
2022/08/06 03:59:51;;;;;;;7.07;6.30;;;29.40;1.00;;;;;;5099771;28;20031;-47
2022/08/06 04:02:18;;;;;;;13.23;6.88;;;29.20;1.00;;;;;;5094096;28;20389;-45
2022/08/06 04:04:45;;;;;;;7.47;6.63;;;29.30;1.00;;;;;;5112787;28;20032;-45
2022/08/06 04:07:33;;;;;;;10.07;6.35;;;29.30;1.00;;;;;;5114828;28;20351;-46
2022/08/06 04:10:00;;;;;;;7.20;6.60;;;29.10;1.00;;;;;;5112715;28;20073;-49
2022/08/06 04:12:28;;;;;;;7.95;5.50;;;29.10;1.00;;;;;;5112844;28;20592;-47
2022/08/06 04:14:54;;;;;;;6.57;5.72;;;29.20;1.00;;;;;;5110832;28;20031;-46
2022/08/06 04:17:21;;;;;;;6.00;5.57;;;29.20;1.00;;;;;;5104756;28;20027;-46
2022/08/06 04:19:48;;;;;;;6.30;5.68;;;29.20;1.00;;;;;;5113337;28;20346;-50
2022/08/06 04:22:14;;;;;;;6.82;6.22;;;29.20;1.00;;;;;;5113990;28;20035;-45
2022/08/06 04:24:40;;;;;;;7.15;6.45;;;29.20;1.00;;;;;;5112967;28;20027;-45
2022/08/06 04:27:08;;;;;;;6.22;5.63;;;29.20;1.00;;;;;;5112159;28;20011;-47
2022/08/06 04:29:38;;;;;;;6.53;5.93;;;29.10;1.00;;;;;;5113953;28;20027;-46
2022/08/06 04:32:05;;;;;;;6.25;5.57;;;29.20;1.00;;;;;;5113503;28;20028;-45
2022/08/06 04:34:33;;;;;;;6.22;5.47;;;29.30;1.00;;;;;;5113805;28;20020;-45
2022/08/06 04:37:01;;;;;;;5.68;5.13;;;29.30;1.00;;;;;;5112729;28;20114;-45
2022/08/06 04:39:27;;;;;;;5.90;5.20;;;29.20;1.00;;;;;;5113716;28;20032;-45
2022/08/06 04:41:54;;;;;;;5.35;4.90;;;29.20;1.00;;;;;;5112684;28;20031;-46
2022/08/06 04:44:20;;;;;;;5.63;4.95;;;29.20;1.00;;;;;;5113480;28;20028;-46
2022/08/06 04:46:50;;;;;;;7.88;5.43;;;29.30;1.00;;;;;;5112740;28;20055;-48
2022/08/06 04:49:16;;;;;;;6.05;5.55;;;29.20;1.00;;;;;;5099328;28;20095;-45
2022/08/06 04:51:46;;;;;;;5.85;5.03;;;29.20;1.00;;;;;;5112789;28;20028;-50
2022/08/06 04:54:13;;;;;;;7.68;4.97;;;29.20;1.00;;;;;;5113520;28;20098;-45
2022/08/06 04:56:40;;;;;;;6.05;4.80;;;29.10;1.00;;;;;;5111914;28;20055;-45
2022/08/06 04:59:06;;;;;;;5.63;4.28;;;29.20;1.00;;;;;;5113177;28;20020;-45
2022/08/06 05:01:32;;;;;;;4.82;4.30;;;29.20;1.00;;;;;;5112579;28;20389;-45
2022/08/06 05:03:57;;;;;;;4.30;4.00;;;29.20;1.00;;;;;;5111814;28;20053;-45
2022/08/06 05:06:52;;;;;;;4.60;4.25;;;29.20;1.00;;;;;;5105626;28;20027;-46
2022/08/06 05:09:21;;;;;;;8.82;4.40;;;29.20;1.00;;;;;;5112394;28;20055;-47
2022/08/06 05:11:52;;;;;;;6.60;3.95;;;29.20;1.00;;;;;;5112326;28;20477;-49
2022/08/06 05:14:28;;;;;;;5.10;4.60;;;29.30;1.00;;;;;;5112875;28;20054;-45
2022/08/06 05:16:56;;;;;;;4.22;3.83;;;29.30;1.00;;;;;;5112393;28;20027;-45
2022/08/06 05:19:28;;;;;;;6.88;3.58;;;29.40;1.00;;;;;;5112711;28;20077;-46
2022/08/06 05:21:55;;;;;;;5.55;3.60;;;29.40;1.00;;;;;;5112214;28;20111;-44
2022/08/06 05:24:21;;;;;;;4.70;4.22;;;29.50;1.00;;;;;;5100834;28;20457;-44
2022/08/06 05:26:48;;;;;;;5.25;3.90;;;29.50;1.00;;;;;;5102775;28;20027;-50
2022/08/06 05:29:19;;;;;;;3.83;2.92;;;29.50;1.00;;;;;;5111245;28;20042;-46
2022/08/06 05:31:44;;;;;;;4.95;3.38;;;29.50;1.00;;;;;;5111837;28;20051;-45
2022/08/06 05:34:11;;;;;;;3.58;3.28;;;29.50;1.00;;;;;;5112676;28;20051;-45
2022/08/06 05:36:37;;;;;;;3.55;3.25;;;29.50;1.00;;;;;;5111814;28;20080;-45
2022/08/06 05:39:04;;;;;;;7.38;3.47;;;29.60;1.00;;;;;;5112691;28;20088;-45
2022/08/06 05:41:29;;;;;;;3.55;3.25;;;29.60;1.00;;;;;;5111593;28;20027;-45
2022/08/06 05:43:55;;;;;;;5.55;3.10;;;29.60;1.00;;;;;;5112673;28;20039;-45
2022/08/06 05:46:23;;;;;;;4.40;2.90;;;29.70;1.00;;;;;;5111402;28;20030;-45
2022/08/06 05:49:12;;;;;;;3.03;2.72;;;29.70;1.00;;;;;;5112383;28;20047;-45
2022/08/06 05:52:06;;;;;;;4.80;3.00;;;29.70;1.00;;;;;;5111583;28;20087;-45
2022/08/06 05:54:42;;;;;;;2.83;2.63;;;29.60;1.00;;;;;;5111788;28;20019;-45
2022/08/06 05:57:17;;;;;;;3.20;2.78;;;29.60;1.00;;;;;;5103402;28;20546;-45
2022/08/06 05:59:50;;;;;;;5.53;3.08;;;29.70;1.00;;;;;;5112165;28;20118;-45
2022/08/06 06:02:17;;;;;;;5.45;3.00;;;29.60;1.00;;;;;;5105934;28;20032;-45
2022/08/06 06:04:46;;;;;;;2.75;2.47;;;29.50;1.00;;;;;;5112408;28;20051;-45
2022/08/06 06:07:12;;;;;;;4.53;3.08;;;29.60;1.00;;;;;;5111610;28;20028;-45
2022/08/06 06:09:38;;;;;;;6.53;2.95;;;29.60;1.00;;;;;;5112135;28;20440;-48
2022/08/06 06:12:05;;;;;;;3.22;3.00;;;29.60;1.00;;;;;;5111337;28;20097;-45
2022/08/06 06:14:34;;;;;;;3.47;3.13;;;29.70;1.00;;;;;;5112015;28;20461;-46
2022/08/06 06:17:36;;;;;;;4.13;3.38;;;29.70;1.00;;;;;;5111307;28;20036;-48
2022/08/06 06:20:28;;;;;;;3.53;3.22;;;29.80;1.00;;;;;;5067120;28;20051;-45
2022/08/06 06:23:31;;;;;;;5.30;3.40;;;29.80;1.00;;;;;;5098111;28;20115;-44
2022/08/06 06:26:15;;;;;;;4.80;3.65;;;29.90;1.00;;;;;;5077629;28;20122;-45
2022/08/06 06:29:12;;;;;;;3.15;2.95;;;29.90;1.00;;;;;;5107746;28;20057;-44
2022/08/06 06:31:57;;;;;;;4.45;3.40;;;29.80;1.00;;;;;;5093632;28;20032;-44
2022/08/06 06:34:37;;;;;;;3.80;3.50;;;29.90;1.00;;;;;;5098849;28;20064;-45
2022/08/06 06:37:16;;;;;;;6.60;3.58;;;30.00;1.00;;;;;;5101771;28;20426;-44
2022/08/06 06:39:58;;;;;;;4.25;3.42;;;30.10;1.00;;;;;;5093407;28;20031;-45
2022/08/06 06:42:31;;;;;;;6.28;3.17;;;30.10;1.00;;;;;;5111131;28;20059;-45
2022/08/06 06:45:07;;;;;;;3.63;3.33;;;30.30;1.00;;;;;;5111556;28;20026;-44
2022/08/06 06:47:32;;;;;;;3.95;3.65;;;30.20;1.00;;;;;;5110687;28;20035;-44
2022/08/06 06:50:02;;;;;;;3.70;3.10;;;30.30;1.00;;;;;;5111902;28;20031;-48
2022/08/06 06:52:35;;;;;;;3.30;3.10;;;30.30;1.00;;;;;;5110433;28;20034;-47
2022/08/06 06:55:12;;;;;;;3.97;3.42;;;30.40;1.00;;;;;;5112066;28;20035;-48
2022/08/06 06:57:43;;;;;;;3.67;2.65;;;30.40;1.00;;;;;;5111231;28;20118;-48
2022/08/06 07:00:09;;;;;;;3.63;3.35;;;30.50;1.00;;;;;;5111838;28;20419;-45
2022/08/06 07:02:40;;;;;;;3.47;3.17;;;30.50;1.00;;;;;;5092983;28;20023;-46
2022/08/06 07:05:07;;;;;;;3.53;3.20;;;30.60;1.00;;;;;;5111706;28;20031;-45
2022/08/06 07:07:36;;;;;;;3.70;3.40;;;30.70;1.00;;;;;;5110568;28;20481;-47
2022/08/06 07:10:03;;;;;;;5.55;3.30;;;30.80;1.00;;;;;;5113411;28;20578;-46
2022/08/06 07:12:32;;;;;;;3.72;3.42;;;30.80;1.00;;;;;;5107898;28;20016;-45
2022/08/06 07:15:00;;;;;;;3.35;2.97;;;30.90;1.00;;;;;;5115249;28;20472;-46
2022/08/06 07:17:27;;;;;;;3.35;3.03;;;30.90;1.00;;;;;;5114500;28;20081;-45
2022/08/06 07:19:56;;;;;;;2.85;2.50;;;31.00;1.00;;;;;;5096909;28;20461;-45
2022/08/06 07:22:24;;;;;;;2.97;2.78;;;31.00;1.00;;;;;;5113529;28;20107;-45
2022/08/06 07:24:59;;;;;;;3.03;2.83;;;31.00;1.00;;;;;;5115107;28;20031;-46
2022/08/06 07:27:35;;;;;;;3.13;2.80;;;31.00;1.00;;;;;;5114353;28;20069;-45
2022/08/06 07:30:01;;;;;;;5.25;3.13;;;31.10;1.00;;;;;;5096787;28;20110;-48
2022/08/06 07:32:32;;;;;;;2.75;2.65;;;31.10;1.00;;;;;;5106154;28;20075;-45
2022/08/06 07:34:58;;;;;;;3.10;2.85;;;31.00;1.00;;;;;;5115010;28;20027;-47
2022/08/06 07:37:25;;;;;;;2.90;2.55;;;31.00;1.00;;;;;;5113493;28;20027;-45
2022/08/06 07:39:55;;;;;;;5.18;2.70;;;31.00;1.00;;;;;;5114927;28;20039;-47
2022/08/06 07:42:24;;;;;;;2.88;2.63;;;31.00;1.00;;;;;;5114032;28;20123;-44
2022/08/06 07:44:53;;;;;;;3.70;2.83;;;31.00;1.00;;;;;;5114629;28;20092;-45
2022/08/06 07:47:22;;;;;;;4.00;2.97;;;31.00;1.00;;;;;;5113739;28;20050;-45
2022/08/06 07:49:56;;;;;;;4.10;2.75;;;31.00;1.00;;;;;;5114594;28;20038;-46
2022/08/06 07:52:23;;;;;;;4.13;2.90;;;31.00;1.00;;;;;;5113040;28;20066;-45
2022/08/06 07:54:49;;;;;;;4.40;3.65;;;30.90;1.00;;;;;;5114860;28;20039;-45
2022/08/06 07:57:16;;;;;;;8.02;5.30;;;31.00;1.00;;;;;;5113613;28;20064;-45
2022/08/06 07:59:42;;;;;;;6.15;5.55;;;31.00;1.00;;;;;;5114271;28;20050;-45
2022/08/06 08:02:10;;;;;;;6.18;5.57;;;31.00;1.00;;;;;;5113497;28;20095;-48
2022/08/06 08:07:23;;;;;;;7.20;6.45;;;31.00;1.00;;;;;;5112703;28;20062;-45
2022/08/06 08:09:49;;;;;;;6.68;5.13;;;30.90;1.00;;;;;;5114449;28;20042;-45
2022/08/06 08:12:17;;;;;;;9.40;5.68;;;31.00;1.00;;;;;;5113559;28;20416;-47
2022/08/06 08:14:44;;;;;;;11.20;6.28;;;31.00;1.00;;;;;;5114135;28;20049;-48
2022/08/06 08:17:10;;;;;;;6.72;6.10;;;31.00;1.00;;;;;;5113294;28;20023;-45
2022/08/06 08:19:35;;;;;;;6.63;5.68;;;31.00;1.00;;;;;;5112658;28;20032;-46
2022/08/06 08:22:15;;;;;;;5.53;5.13;;;31.00;1.00;;;;;;5112955;28;20034;-46
2022/08/06 08:24:43;;;;;;;5.22;4.78;;;31.10;1.00;;;;;;5113468;28;20069;-48
2022/08/06 08:27:10;;;;;;;4.88;4.45;;;31.10;1.00;;;;;;5113217;28;20020;-50
2022/08/06 08:29:39;;;;;;;8.27;4.97;;;31.10;1.00;;;;;;5113676;28;20020;-46
2022/08/06 08:32:07;;;;;;;8.70;5.07;;;31.20;1.00;;;;;;5113030;28;20095;-47
2022/08/06 08:34:33;;;;;;;6.47;4.57;;;31.30;1.00;;;;;;5113822;28;20023;-46
2022/08/06 08:36:59;;;;;;;7.88;5.10;;;31.20;1.00;;;;;;5111454;28;20464;-45
2022/08/06 08:39:27;;;;;;;5.32;4.93;;;31.30;1.00;;;;;;5113496;28;20039;-45
2022/08/06 08:42:01;;;;;;;8.25;6.38;;;31.30;1.00;;;;;;5112770;28;20111;-45
2022/08/06 08:44:29;;;;;;;6.30;4.50;;;31.30;1.00;;;;;;5113409;28;20051;-45
2022/08/06 08:46:58;;;;;;;6.93;5.43;;;31.40;1.00;;;;;;5112864;28;20027;-46
2022/08/06 08:49:35;;;;;;;6.18;4.65;;;31.40;1.00;;;;;;5112847;28;20095;-46
2022/08/06 08:52:06;;;;;;;8.32;4.57;;;31.40;1.00;;;;;;5112457;28;20032;-46
2022/08/06 08:54:34;;;;;;;6.20;5.63;;;31.50;1.00;;;;;;5113437;28;20016;-47
2022/08/06 08:57:01;;;;;;;5.90;5.28;;;31.40;1.00;;;;;;5109880;28;20028;-48
2022/08/06 08:59:27;;;;;;;9.35;5.78;;;31.50;1.00;;;;;;5113376;28;20035;-45
2022/08/06 09:01:53;;;;;;;5.55;5.13;;;31.60;1.00;;;;;;5112203;28;20077;-45
2022/08/06 09:04:19;;;;;;;6.25;5.65;;;31.60;1.00;;;;;;5094867;28;20385;-46
2022/08/06 09:06:45;;;;;;;10.70;5.47;;;31.60;1.00;;;;;;5111206;28;20035;-45
2022/08/06 09:09:11;;;;;;;6.82;6.05;;;31.70;1.00;;;;;;5112825;28;20028;-45
2022/08/06 09:11:37;;;;;;;5.80;5.30;;;31.70;1.00;;;;;;5111088;28;20110;-48
2022/08/06 09:14:08;;;;;;;6.38;5.78;;;31.70;1.00;;;;;;5109545;28;20089;-45
2022/08/06 09:16:35;;;;;;;6.85;5.35;;;31.70;1.00;;;;;;5105736;28;20055;-45
2022/08/06 09:19:03;;;;;;;7.07;6.40;;;31.80;1.00;;;;;;5107715;28;20058;-45
2022/08/06 09:21:30;;;;;;;6.93;6.32;;;31.80;1.00;;;;;;5112943;28;20016;-46
2022/08/06 09:23:56;;;;;;;6.93;6.22;;;31.90;1.00;;;;;;5112083;28;20043;-46
2022/08/06 09:26:21;;;;;;;6.75;6.10;;;31.90;1.00;;;;;;5112757;28;20093;-45
2022/08/06 09:28:48;;;;;;;9.30;7.13;;;32.00;1.00;;;;;;5111963;28;20495;-45
2022/08/06 09:31:17;;;;;;;7.03;6.40;;;32.00;1.00;;;;;;5112073;28;20125;-47
2022/08/06 09:34:02;;;;;;;13.18;7.22;;;32.00;1.00;;;;;;5098465;28;20047;-53
2022/08/06 09:36:39;;;;;;;7.60;6.47;;;32.00;1.00;;;;;;5097159;28;20039;-46
2022/08/06 09:39:05;;;;;;;7.72;6.95;;;32.00;1.00;;;;;;5106408;28;20055;-45
2022/08/06 09:41:31;;;;;;;7.35;6.38;;;32.10;1.00;;;;;;5112322;28;20018;-45
2022/08/06 09:43:58;;;;;;;7.80;7.07;;;32.10;1.00;;;;;;5107170;28;20130;-44
2022/08/06 09:46:38;;;;;;;8.05;7.20;;;32.10;1.00;;;;;;5112633;28;20015;-44
2022/08/06 09:49:04;;;;;;;7.45;6.50;;;32.20;1.00;;;;;;5098397;28;20115;-45
2022/08/06 09:51:34;;;;;;;10.68;6.70;;;32.20;1.00;;;;;;5112591;28;20034;-45
2022/08/06 09:54:01;;;;;;;7.03;6.45;;;32.20;1.00;;;;;;5111576;28;20354;-44
2022/08/06 09:56:27;;;;;;;6.30;5.90;;;32.30;1.00;;;;;;5112414;28;20047;-46
2022/08/06 09:59:00;;;;;;;7.90;6.80;;;32.30;1.00;;;;;;5111251;28;20485;-45
2022/08/06 10:01:27;;;;;;;7.32;6.60;;;32.30;1.00;;;;;;5083143;28;20018;-45
2022/08/06 10:03:55;;;;;;;7.55;6.93;;;32.30;1.00;;;;;;5111518;28;20507;-45
2022/08/06 10:06:21;;;;;;;7.75;6.50;;;32.30;1.00;;;;;;5112125;28;20099;-45
2022/08/06 10:08:49;;;;;;;7.82;6.50;;;32.40;1.00;;;;;;5111218;28;20436;-45
2022/08/06 10:11:15;;;;;;;7.88;6.90;;;32.40;1.00;;;;;;5111976;28;20473;-45
2022/08/06 10:13:47;;;;;;;7.63;6.45;;;32.50;1.00;;;;;;5110145;28;20024;-45
2022/08/06 10:16:26;;;;;;;7.03;6.43;;;32.60;1.00;;;;;;5093591;28;20376;-46
2022/08/06 10:18:53;;;;;;;7.10;6.45;;;32.70;1.00;;;;;;5102728;28;20080;-45
2022/08/06 10:21:23;;;;;;;6.75;5.82;;;32.60;1.00;;;;;;5112019;28;20072;-46
2022/08/06 10:23:53;;;;;;;7.22;6.53;;;32.70;1.00;;;;;;5109794;28;20449;-46
2022/08/06 10:26:33;;;;;;;7.10;6.60;;;32.90;1.00;;;;;;5112141;28;20043;-45
2022/08/06 10:29:04;;;;;;;7.40;6.28;;;32.80;1.00;;;;;;5111319;28;20028;-44
2022/08/06 10:31:31;;;;;;;6.95;6.07;;;33.00;1.00;;;;;;5111993;28;20023;-45
2022/08/06 10:34:06;;;;;;;7.97;6.18;;;33.10;1.00;;;;;;5110936;28;20112;-45
2022/08/06 10:36:36;;;;;;;7.18;6.57;;;33.10;1.00;;;;;;5111886;28;20107;-44
2022/08/06 10:39:03;;;;;;;7.45;6.72;;;33.00;1.00;;;;;;5111312;28;20036;-46
2022/08/06 10:41:30;;;;;;;8.02;6.00;;;33.20;1.00;;;;;;5111803;28;20446;-45
2022/08/06 10:43:56;;;;;;;7.00;6.40;;;33.10;1.00;;;;;;5094886;28;20432;-47
2022/08/06 10:46:23;;;;;;;6.90;6.22;;;33.10;1.00;;;;;;5115970;28;20023;-44
2022/08/06 10:48:49;;;;;;;7.20;6.22;;;33.20;1.00;;;;;;5113127;28;20430;-44
2022/08/06 10:51:15;;;;;;;9.25;6.70;;;33.30;1.00;;;;;;5115851;28;20096;-45
2022/08/06 10:53:44;;;;;;;6.93;6.32;;;33.40;1.00;;;;;;5109150;28;20020;-44
2022/08/06 10:56:13;;;;;;;10.88;7.15;;;33.50;1.00;;;;;;5115698;28;20023;-46
2022/08/06 10:58:39;;;;;;;7.25;6.55;;;33.40;1.00;;;;;;5114667;28;20027;-45
2022/08/06 11:01:19;;;;;;;7.65;7.07;;;33.50;1.00;;;;;;5115628;28;20031;-45
2022/08/06 11:03:51;;;;;;;7.45;6.78;;;33.50;1.00;;;;;;5113811;28;20024;-44
2022/08/06 11:06:39;;;;;;;6.82;6.13;;;33.50;1.00;;;;;;5102064;28;20024;-44
2022/08/06 11:09:15;;;;;;;6.50;5.90;;;33.60;1.00;;;;;;5114673;28;20039;-45
2022/08/06 11:12:06;;;;;;;7.30;6.80;;;33.90;1.00;;;;;;5115315;28;20020;-44
2022/08/06 11:14:37;;;;;;;6.63;6.03;;;33.80;1.00;;;;;;5114585;28;20055;-48
2022/08/06 11:17:03;;;;;;;6.13;5.53;;;33.80;1.00;;;;;;5114404;28;20073;-44
2022/08/06 11:19:43;;;;;;;6.25;5.65;;;34.00;1.00;;;;;;5114416;28;20035;-47
2022/08/06 11:22:46;;;;;;;5.93;5.45;;;34.20;1.00;;;;;;5114869;28;20034;-46
2022/08/06 11:25:12;;;;;;;6.27;5.77;;;34.30;1.00;;;;;;5096642;28;20374;-44
2022/08/06 11:28:01;;;;;;;7.88;6.30;;;34.40;1.00;;;;;;5115292;28;20269;-44
2022/08/06 11:30:43;;;;;;;6.22;5.72;;;34.50;1.00;;;;;;5100740;28;20026;-46
2022/08/06 11:33:10;;;;;;;7.50;5.47;;;34.60;1.00;;;;;;5111737;28;20023;-45
2022/08/06 11:35:35;;;;;;;5.85;5.45;;;34.70;1.00;;;;;;5115058;28;20023;-44
2022/08/06 11:38:08;;;;;;;5.75;5.20;;;34.80;1.00;;;;;;5113367;28;20036;-48
2022/08/06 11:40:57;;;;;;;5.18;4.78;;;34.80;1.00;;;;;;5110684;28;20042;-45
2022/08/06 11:43:52;;;;;;;6.95;6.35;;;35.00;1.00;;;;;;5095187;28;20189;-46
2022/08/06 11:46:26;;;;;;;6.68;6.18;;;35.30;1.00;;;;;;5113694;28;20148;-45
2022/08/06 11:49:02;;;;;;;6.07;5.57;;;35.30;1.00;;;;;;5114376;28;20377;-47
2022/08/06 11:51:58;;;;;;;6.32;5.82;;;35.50;1.00;;;;;;5100211;28;20026;-45
2022/08/06 11:55:00;;;;;;;6.32;5.70;;;36.80;1.00;;;;;;5112301;28;20028;-48
2022/08/06 11:57:25;;;;;;;5.88;5.53;;;37.50;1.00;;;;;;5071622;28;20119;-45
2022/08/06 11:59:57;;;;;;;5.85;5.35;;;37.60;1.00;;;;;;5113776;28;20455;-47
2022/08/06 12:02:46;;;;;;;5.93;5.45;;;38.10;1.00;;;;;;5114445;28;20028;-45
2022/08/06 12:05:14;;;;;;;6.43;6.03;;;39.10;1.00;;;;;;5113473;28;20035;-44
2022/08/06 12:07:43;;;;;;;6.78;6.22;;;40.40;1.00;;;;;;5114312;28;20027;-44
2022/08/06 12:10:11;;;;;;;6.82;6.32;;;41.60;1.00;;;;;;5111310;28;20031;-46
2022/08/06 12:12:50;;;;;;;6.78;6.20;;;42.60;1.00;;;;;;5114471;28;20047;-45
2022/08/06 12:15:16;;;;;;;6.70;6.20;;;41.90;1.00;;;;;;5113629;28;20023;-49
2022/08/06 12:17:58;;;;;;;6.65;6.25;;;41.40;1.00;;;;;;5113426;28;20054;-46
2022/08/06 12:20:37;;;;;;;7.82;7.32;;;42.40;1.00;;;;;;5112487;28;20107;-47
2022/08/06 12:23:08;;;;;;;9.07;6.68;;;44.40;1.00;;;;;;5114050;28;20019;-46
2022/08/06 12:25:35;;;;;;;7.07;6.65;;;46.70;1.00;;;;;;5114191;28;20054;-45
2022/08/06 12:28:01;;;;;;;7.32;6.85;;;47.80;1.00;;;;;;5113866;28;20047;-45
2022/08/06 12:30:40;;;;;;;7.18;6.72;;;47.40;99.90;;;;;;5094960;28;20424;-45
2022/08/06 12:33:08;;;;;;;7.35;6.95;;;48.90;99.90;;;;;;5113962;28;20020;-50
2022/08/06 12:35:34;;;;;;;7.53;7.07;;;49.30;99.90;;;;;;5099215;28;20023;-45
2022/08/06 12:37:59;;;;;;;8.55;7.95;;;48.50;99.90;;;;;;5113694;28;20123;-44
2022/08/06 12:40:28;;;;;;;8.88;8.20;;;47.20;1.00;;;;;;5112989;28;20576;-48
2022/08/06 12:43:14;;;;;;;8.57;8.10;;;47.00;1.00;;;;;;5112510;28;20048;-45
2022/08/06 12:45:40;;;;;;;8.20;7.70;;;47.20;1.00;;;;;;5098705;28;20084;-45
2022/08/06 12:48:08;;;;;;;8.23;7.68;;;46.10;1.00;;;;;;5102372;28;20043;-45
2022/08/06 12:50:37;;;;;;;8.10;7.70;;;45.00;1.00;;;;;;5100359;28;20035;-47
2022/08/06 12:53:09;;;;;;;9.93;8.98;;;44.50;1.00;;;;;;5108333;28;20023;-45
2022/08/06 12:55:46;;;;;;;8.93;8.43;;;44.20;1.00;;;;;;5112382;28;20032;-45
2022/08/06 12:58:22;;;;;;;8.57;8.15;;;44.40;1.00;;;;;;5112700;28;20051;-45
2022/08/06 13:00:50;;;;;;;8.90;8.40;;;44.60;1.00;;;;;;5105500;28;20040;-45
2022/08/06 13:03:20;;;;;;;10.20;9.35;;;44.00;1.00;;;;;;5112791;28;20091;-47
2022/08/06 13:05:46;;;;;;;9.45;9.07;;;44.30;1.00;;;;;;5103884;28;20016;-45
2022/08/06 13:08:12;;;;;;;10.23;9.48;;;44.60;1.00;;;;;;5113176;28;20039;-45
2022/08/06 13:10:38;;;;;;;9.10;8.70;;;45.70;1.00;;;;;;5111551;28;20157;-47
2022/08/06 13:13:09;;;;;;;9.65;9.15;;;47.20;99.90;;;;;;5113091;28;20024;-45
2022/08/06 13:15:34;;;;;;;9.60;9.13;;;48.60;99.90;;;;;;5109884;28;20028;-48
2022/08/06 13:18:16;;;;;;;10.32;9.68;;;49.80;99.90;;;;;;5100000;28;20208;-47